Weather observations for the past three days for
Snyder, Winston Field Airport
Imperial (Metric)
Date Time (cdt) Wind (mph) Vis. (mi.) Weather Sky Cond. Temperature (ºF) Relative Humidity Wind Chill (°F) Heat Index (°F) Pressure Precipitation (in)
Air Dwpt 6 hour altimeter (in) sea level (mb) 1 hr 3 hr 6 hr
Max. Min.
08 08:15 S 8 10.00 Overcast OVC010 61 53.6 77% 29.96 0.0
08 07:55 S 6 10.00 Overcast OVC010 60.6 52.7 75% 29.96 0.0
08 07:35 S 7 10.00 Overcast OVC010 60.4 51.6 73% 29.96 0.0
08 07:15 S 7 10.00 Overcast OVC013 60.1 51.4 73% 29.96 0.0
08 06:55 S 7 10.00 Overcast OVC011 59.9 53.2 79% 29.96 0.0
08 06:35 S 8 10.00 Overcast OVC009 60.1 52.5 76% 29.96 0.0
08 06:15 S 3 10.00 Overcast OVC011 60.1 50.2 70% 29.96 0.0
08 05:55 S 3 10.00 Overcast OVC011 59.9 49.3 68% 29.96 0.0
08 05:35 Calm 10.00 Overcast OVC011 59.9 49.1 68% 29.95 0.0
08 05:15 Calm 10.00 Overcast OVC011 60.1 49.6 69% 29.95 0.0
08 04:55 SE 7 10.00 Overcast OVC015 59.9 49.5 69% 29.95 0.0
08 04:35 S 7 10.00 Overcast BKN015 OVC022 59.7 49.1 68% 29.95 0.0
08 04:15 S 7 10.00 Overcast SCT016 OVC020 59.5 49.5 69% 29.96 0.0
08 03:55 Calm 10.00 Overcast SCT013 BKN020 OVC029 59.2 49.6 71% 29.96 0.0
08 03:35 S 5 10.00 Mostly Cloudy BKN013 BKN020 BKN034 58.5 49.6 73% 29.96 0.0
08 03:15 S 6 10.00 Partly Cloudy SCT036 58.3 49.6 73% 29.97 0.0
08 02:55 S 5 10.00 Partly Cloudy SCT036 58.6 49.6 72% 29.98 0.0
08 02:35 Calm 10.00 Partly Cloudy SCT017 59.9 49.8 70% 29.98 0.0
08 02:15 S 3 10.00 Overcast OVC015 60.6 49.6 67% 29.98 0.0
08 01:55 S 6 10.00 Overcast OVC015 60.8 49.5 66% 29.99 0.0
08 01:35 S 6 10.00 Overcast BKN017 OVC023 61 49.3 66% 29.99 0.0
08 01:15 S 6 10.00 Overcast OVC025 61.3 48.7 63% 29.99 0.0
08 00:55 S 6 10.00 Overcast OVC027 61.7 47.7 60% 30 0.0
08 00:35 S 5 10.00 Overcast OVC027 61.7 46.8 58% 29.99 0.0
08 00:15 S 8 10.00 Overcast OVC025 61.2 45.9 57% 29.99 0.0
07 23:55 S 7 10.00 Mostly Cloudy BKN029 BKN034 60.1 45.1 58% 30 0.0
07 23:35 S 7 10.00 Fair CLR 59.9 44.2 56% 30 0.0
07 23:15 S 8 10.00 Fair CLR 60.6 43.7 54% 30 0.0
07 22:55 S 7 10.00 Partly Cloudy SCT055 61.5 43.2 51% 30.01 0.0
07 22:35 S 9 10.00 Mostly Cloudy BKN065 62.4 43.2 50% 30.01 0.0
07 22:15 S 7 10.00 Partly Cloudy SCT065 63.1 43.7 49% 30.01 0.0
07 21:55 S 8 10.00 Fair CLR 64.2 44.6 49% 29.99 0.0
07 21:35 S 9 10.00 Fair CLR 65.3 44.6 47% 29.99 0.0
07 21:15 S 13 10.00 Fair CLR 66.4 44.8 46% 29.98 0.0
07 20:55 S 14 10.00 Fair CLR 67.5 45 44% 29.98 0.0
07 20:35 S 13 G 17 10.00 Fair CLR 68.7 44.6 42% 29.97 0.0
07 20:15 S 10 10.00 Fair CLR 69.8 44.1 40% 29.96 0.0
07 19:55 S 12 10.00 Partly Cloudy SCT100 70.7 44.6 39% 29.96 0.0
07 19:35 S 14 G 18 10.00 Mostly Cloudy BKN100 72.1 44.4 37% 29.96 0.0
07 19:15 S 14 G 17 10.00 Mostly Cloudy BKN110 73.8 44.2 35% 29.97 0.0
07 18:55 S 15 G 20 10.00 Partly Cloudy SCT110 75.4 43.9 33% 77 29.96 0.0
07 18:35 S 14 10.00 Partly Cloudy SCT110 76.8 40.1 27% 77 29.96 0.0
07 18:15 SE 8 10.00 Partly Cloudy SCT110 76.8 39.2 26% 77 29.96 0.0
07 17:55 SE 8 10.00 Fair CLR 75.9 39.2 27% 77 29.97 0.0
07 17:35 SE 8 10.00 Fair CLR 76.3 39.4 27% 77 29.98 0.0
07 17:15 SE 9 10.00 Fair CLR 76.3 39.4 27% 77 29.98 0.0
07 16:55 SE 8 10.00 Fair CLR 75.4 39.6 28% 77 29.99 0.0
07 16:35 SE 7 10.00 Fair CLR 75 39.9 28% 77 30 0.0
07 16:15 SE 10 10.00 Fair CLR 74.8 40.5 29% 30.01 0.0
07 15:35 E 5 5.00 Fair with Haze CLR 73 40.6 31% 30.02 0.0
07 15:15 E 6 10.00 Fair CLR 72.1 40.5 32% 30.04 0.0
07 14:55 SE 5 10.00 Fair CLR 71.6 40.5 32% 30.04 0.0
07 14:35 E 7 10.00 Fair CLR 70.3 41.2 35% 30.05 0.0
07 14:15 E 6 7.00 Fair CLR 69.6 40.8 35% 30.06 0.0
07 13:55 SE 3 10.00 Fair CLR 68.5 40.3 36% 30.07 0.0
07 13:35 Calm 10.00 Fair CLR 68 40.6 37% 30.08 0.0
07 13:15 E 7 10.00 Fair CLR 66.7 40.5 38% 30.09 0.0
07 12:55 E 8 10.00 Fair CLR 65.8 40.1 39% 30.1 0.0
07 12:35 E 6 10.00 Fair CLR 64.8 40.6 41% 30.11 0.0
07 12:15 Calm 10.00 Fair CLR 63.9 41 43% 30.12 0.0
07 11:55 NE 8 10.00 Fair CLR 63 41.2 45% 30.13 0.0
07 11:35 E 10 10.00 Fair CLR 61.5 40.8 47% 30.14 0.0
07 11:15 NE 8 10.00 Fair CLR 60.3 41 49% 30.14 0.0
07 10:55 NE 5 10.00 Fair CLR 59.5 41 50% 30.15 0.0
07 10:35 E 8 10.00 Fair CLR 58.5 41.2 53% 30.16 0.0
07 10:15 E 6 10.00 Fair CLR 57.2 41.7 56% 30.16 0.0
07 09:55 E 7 10.00 Fair CLR 56.3 41.9 59% 30.16 0.0
07 09:35 E 8 10.00 Fair CLR 55.2 42.6 63% 30.16 0.0
07 09:15 E 9 10.00 Fair CLR 53.8 42.8 67% 30.16 0.0
07 08:55 E 12 10.00 Fair CLR 52.3 42.4 69% 30.16 0.0
07 08:35 E 7 10.00 Fair CLR 51.1 41.2 69% 30.16 0.0
07 08:15 NE 8 10.00 Fair CLR 49.8 40.1 69% 47 30.16 0.0
07 07:55 NE 8 10.00 Fair CLR 48.9 40.1 72% 46 30.16 0.0
07 07:35 NE 7 10.00 Fair CLR 48 40.1 74% 45 30.15 0.0
07 07:15 NE 6 10.00 Fair CLR 48 40.3 75% 46 30.16 0.0
07 06:55 NE 7 10.00 Fair CLR 48.2 41.2 77% 46 30.15 0.0
07 06:35 NE 10 10.00 Fair CLR 48.6 43.3 82% 45 30.15 0.0
07 06:15 NE 8 10.00 Fair CLR 48.9 44.1 83% 46 30.15 0.0
07 05:55 NE 5 10.00 Fair CLR 49.5 44.4 83% 48 30.16 0.0
07 05:35 NE 7 10.00 Fair CLR 50 44.6 82% 48 30.15 0.0
07 05:15 NE 8 10.00 Fair CLR 50.4 44.6 81% 30.15 0.0
07 04:55 NE 8 10.00 Fair CLR 50.7 44.4 79% 30.14 0.0
07 04:35 NE 9 10.00 Fair CLR 51.3 44.2 77% 30.14 0.0
07 04:15 NE 10 10.00 Partly Cloudy SCT046 51.6 44.2 76% 30.13 0.0
07 03:55 NE 9 10.00 Partly Cloudy SCT046 52.2 44.6 76% 30.12 0.0
07 03:35 NE 9 10.00 Partly Cloudy SCT046 52.7 44.6 74% 30.12 0.0
07 03:15 E 12 10.00 Fair CLR 53.1 44.1 72% 30.12 0.0
07 02:55 E 10 10.00 Fair CLR 53.6 44.1 70% 30.11 0.0
07 02:35 NE 10 10.00 Fair CLR 54.1 43.9 68% 30.11 0.0
07 02:15 E 12 10.00 Fair CLR 54.5 43.9 68% 30.1 0.0
07 01:55 E 13 10.00 Fair CLR 54.9 43.7 66% 30.1 0.0
07 01:35 E 12 10.00 Fair CLR 55.4 43.7 65% 30.09 0.0
07 01:15 E 12 G 16 10.00 Fair CLR 55.9 43.3 63% 30.08 0.0
07 00:55 E 12 10.00 Fair CLR 56.3 43.3 62% 30.07 0.0
07 00:35 E 12 G 18 10.00 Fair CLR 56.8 43.2 60% 30.06 0.0
07 00:15 E 13 10.00 Fair CLR 57.4 43.2 59% 30.05 0.0
06 23:55 E 10 10.00 Fair CLR 58.1 42.8 57% 30.05 0.0
06 23:35 E 12 G 16 10.00 Fair CLR 58.8 42.4 55% 30.04 0.0
06 23:15 E 10 10.00 Fair CLR 59.7 42.3 53% 30.03 0.0
06 22:55 E 15 10.00 Fair CLR 60.6 41.7 50% 30.02 0.0
06 22:35 E 12 10.00 Fair CLR 62.2 40.8 46% 30.02 0.0
06 22:15 E 12 G 17 10.00 Fair CLR 63.1 40.3 43% 30.01 0.0
06 21:55 E 13 G 16 10.00 Fair CLR 63.9 40.3 42% 30 0.0
06 21:35 E 12 10.00 Fair CLR 64.6 40.3 41% 29.99 0.0
06 21:15 E 10 G 17 10.00 Fair CLR 65.3 40.1 40% 29.99 0.0
06 20:55 E 10 G 17 10.00 Fair CLR 66.4 39.9 38% 29.98 0.0
06 20:35 E 14 10.00 Fair CLR 67.6 39.6 36% 29.97 0.0
06 20:15 E 12 10.00 Fair CLR 68.9 39.6 34% 29.95 0.0
06 19:55 E 14 10.00 Fair CLR 70 39.4 33% 29.95 0.0
06 19:35 E 13 10.00 Fair CLR 70.9 39.4 32% 29.95 0.0
06 19:15 E 12 10.00 Fair CLR 71.6 39.4 31% 29.95 0.0
06 18:55 E 14 G 21 10.00 Fair CLR 72.5 39.4 30% 29.94 0.0
06 18:35 E 10 10.00 Fair CLR 73 39.2 29% 29.94 0.0
06 18:15 E 9 10.00 Fair CLR 73 39.4 30% 29.94 0.0
06 17:55 E 9 10.00 Fair CLR 73 39.6 30% 29.94 0.0
06 17:35 E 9 10.00 Fair CLR 72.1 39.7 31% 29.94 0.0
06 17:15 E 6 10.00 Fair CLR 71.6 40.1 32% 29.94 0.0
06 16:55 NE 6 10.00 Fair CLR 70.7 40.6 34% 29.94 0.0
06 16:35 Calm 10.00 Fair CLR 70.2 41.2 35% 29.95 0.0
06 16:15 NE 7 10.00 Fair CLR 68.9 41.4 37% 29.95 0.0
06 15:55 Calm 10.00 Fair CLR 68.4 41.7 38% 29.96 0.0
06 15:35 E 9 10.00 Fair CLR 67.6 42.4 40% 29.96 0.0
06 15:15 E 7 10.00 Fair CLR 66.4 42.4 42% 29.97 0.0
06 14:55 E 6 10.00 Fair CLR 65.7 42.4 43% 29.97 0.0
06 14:35 NE 3 10.00 Fair CLR 64.6 42.6 45% 29.98 0.0
06 14:15 E 6 10.00 Fair CLR 63.1 42.4 47% 29.98 0.0
06 13:55 E 5 10.00 Fair CLR 62.4 42.3 48% 29.99 0.0
06 13:35 NE 5 10.00 Fair CLR 61 41.4 49% 30 0.0
06 13:15 E 8 10.00 Fair CLR 59.9 41.2 50% 30 0.0
06 12:55 NE 7 10.00 Fair CLR 58.6 40.6 51% 30.01 0.0
06 12:35 NE 9 10.00 Fair CLR 56.8 40.8 55% 30.01 0.0
06 12:15 NE 10 10.00 Fair CLR 55.2 40.5 58% 30.02 0.0
06 11:55 NE 10 10.00 Fair CLR 53.4 40.8 63% 30.02 0.0
06 11:35 N 8 10.00 Fair CLR 52 41.2 67% 30.02 0.0
06 11:15 NE 10 G 16 10.00 Mostly Cloudy BKN017 51.4 41 68% 30.02 0.0
06 10:55 NE 10 10.00 Overcast OVC015 50.7 40.8 69% 30.02 0.0
06 10:35 NE 13 10.00 Overcast OVC015 49.8 41 72% 45 30.02 0.0
06 10:15 NE 13 10.00 Overcast OVC015 49.3 41.2 74% 45 30.02 0.0
06 09:55 NE 13 10.00 Overcast OVC013 48.7 41.2 75% 44 30.03 0.0
06 09:35 NE 14 10.00 Overcast OVC013 48.6 41 75% 44 30.02 0.0
06 09:15 NE 10 10.00 Overcast OVC013 48.4 41 76% 44 30.02 0.0
06 08:55 NE 15 10.00 Overcast OVC013 48.2 41 76% 43 30.01 0.0
06 08:35 NE 13 10.00 Overcast OVC013 48.2 41.2 77% 43 30 0.0
06 08:15 NE 12 10.00 Overcast OVC013 48.2 41.2 77% 44 30 0.0
06 07:55 NE 12 10.00 Overcast OVC013 48.4 41.7 78% 44 29.98 0.0
06 07:35 NE 17 G 24 10.00 Overcast OVC011 48.2 42.1 79% 42 29.95 0.0
06 07:15 NE 16 G 22 10.00 Overcast OVC011 48 42.1 80% 42 29.93 0.0
06 06:55 NE 14 G 20 10.00 Overcast OVC011 48.2 41.9 79% 43 29.93 0.0
06 06:35 NE 15 G 20 10.00 Overcast OVC013 48.2 41.5 78% 43 29.93 0.0
06 06:15 NE 14 10.00 Overcast OVC013 48.4 41.2 76% 43 29.93 0.0
06 05:55 NE 15 10.00 Mostly Cloudy BKN013 48.9 41 74% 44 29.92 0.0
06 05:35 NE 13 10.00 Mostly Cloudy BKN013 49.6 41.5 74% 45 29.91 0.0
06 05:15 NE 12 10.00 Partly Cloudy SCT015 50.2 41.9 73% 29.91 0.0
06 04:55 NE 10 10.00 Fair CLR 50.4 41.9 73% 29.91 0.0
06 04:35 NE 9 10.00 Fair CLR 50.7 41.9 72% 29.91 0.0
06 04:15 E 12 10.00 Fair CLR 50.9 41.9 71% 29.91 0.0
06 03:55 E 13 10.00 Fair CLR 51.3 41.9 71% 29.9 0.0
06 03:35 E 12 10.00 Fair CLR 51.6 42.1 70% 29.89 0.0
06 03:15 NE 13 10.00 Fair CLR 52 41.9 69% 29.88 0.0
06 02:55 NE 15 G 20 10.00 Fair CLR 52.5 42.4 69% 29.88 0.0
06 02:35 E 14 10.00 Fair CLR 53.4 42.8 67% 29.88 0.0
06 02:15 NE 13 G 20 10.00 Fair CLR 54 43.2 67% 29.88 0.0
06 01:55 NE 15 G 20 10.00 Fair CLR 54.9 43.7 66% 29.88 0.0
06 01:15 NE 16 G 21 10.00 Fair CLR 56.7 44.6 64% 29.87 0.0
06 00:55 NE 14 G 22 10.00 Fair CLR 57.6 44.8 63% 29.87 0.0
06 00:35 NE 15 G 22 10.00 Fair CLR 58.5 45 61% 29.87 0.0
06 00:15 NE 14 10.00 Fair CLR 59.7 45.3 59% 29.87 0.0
05 23:55 NE 16 G 20 10.00 Fair CLR 61.3 45.1 55% 29.86 0.0
05 23:35 E 13 G 18 10.00 Fair CLR 62.8 44.8 52% 29.86 0.0
05 23:15 E 15 G 20 10.00 Fair CLR 64.2 44.4 49% 29.84 0.0
05 22:55 E 13 10.00 Fair CLR 65.7 43.9 45% 29.84 0.0
05 22:35 E 15 10.00 Fair CLR 67.3 43.7 43% 29.84 0.0
05 22:15 E 16 10.00 Fair CLR 69.1 43.7 40% 29.81 0.0
05 21:55 E 16 10.00 Fair CLR 71.4 43.5 37% 29.81 0.0
05 21:35 E 14 G 20 10.00 Fair CLR 73.6 42.4 33% 29.81 0.0
05 21:15 E 7 10.00 Fair CLR 74.5 41.7 31% 29.81 0.0
05 20:55 E 8 10.00 Fair CLR 75.7 41 29% 77 29.79 0.0
05 20:35 E 8 10.00 Fair CLR 78.6 37.4 23% 78 29.79 0.0
05 20:15 Calm 10.00 Fair CLR 79.9 35.6 20% 79 29.77 0.0
05 19:55 W 3 10.00 Fair CLR 80.8 34.3 19% 79 29.77 0.0
05 19:35 W 7 10.00 Fair CLR 81.3 33.1 17% 79 29.77 0.0
05 19:15 W 13 G 18 10.00 Fair CLR 81.9 32.2 17% 80 29.76 0.0
05 18:55 W 16 G 20 10.00 Fair CLR 82.2 32 16% 80 29.76 0.0
05 18:35 W 18 G 26 10.00 Fair CLR 82.4 32.4 16% 80 29.76 0.0
05 18:15 W 16 G 24 10.00 Fair CLR 83.1 32.7 16% 81 29.76 0.0
05 17:55 W 20 G 23 10.00 Fair CLR 83.8 32.7 16% 81 29.75 0.0
05 17:35 W 20 G 23 10.00 Fair CLR 85.3 32.9 15% 82 29.75 0.0
05 17:15 W 14 G 25 10.00 Fair CLR 86.2 32.2 14% 83 29.75 0.0
05 16:55 W 16 G 23 10.00 Fair CLR 87.3 32.9 14% 84 29.76 0.0
05 16:35 W 20 G 23 10.00 Fair CLR 88 33.1 14% 84 29.75 0.0
05 16:15 W 15 G 23 10.00 Fair CLR 88.9 33.3 14% 85 29.75 0.0
05 15:55 W 18 10.00 Fair CLR 88.9 32.9 14% 85 29.75 0.0
05 15:35 W 18 G 24 10.00 Fair CLR 88.9 32.4 13% 85 29.75 0.0
05 15:15 W 22 G 28 10.00 Fair and Breezy CLR 88.9 32.5 13% 85 29.76 0.0
05 14:55 W 20 G 25 10.00 Fair CLR 89.2 33.1 13% 85 29.76 0.0
05 14:35 W 15 G 24 10.00 Fair CLR 88.5 32.7 14% 85 29.76 0.0
05 14:15 W 21 G 28 10.00 Fair and Breezy CLR 88.3 32.4 13% 85 29.76 0.0
05 13:55 SW 12 G 22 10.00 Fair CLR 87.8 32.2 14% 84 29.76 0.0
05 13:35 W 12 G 18 10.00 Fair CLR 87.4 31.8 14% 84 29.77 0.0
05 13:15 W 12 G 21 10.00 Fair CLR 88.2 32.9 14% 84 29.77 0.0
05 12:55 W 13 G 20 10.00 Fair CLR 87.3 32.4 14% 84 29.77 0.0
05 12:35 W 13 G 17 10.00 Fair CLR 86.9 32.9 14% 83 29.78 0.0
05 12:15 W 15 G 18 10.00 Fair CLR 86 33.3 15% 83 29.79 0.0
05 11:55 W 12 G 17 10.00 Fair CLR 84.4 34 16% 81 29.79 0.0
05 11:35 W 10 10.00 Fair CLR 83.1 35.6 18% 81 29.78 0.0
05 11:15 W 8 10.00 Fair CLR 81.7 36.9 20% 80 29.78 0.0
05 10:55 W 10 10.00 Fair CLR 80.4 40.8 24% 79 29.77 0.0
05 10:35 W 13 G 18 10.00 Fair CLR 78.4 45.1 31% 78 29.77 0.0
05 10:15 W 14 10.00 Fair CLR 76.6 49.8 39% 78 29.77 0.0
05 09:55 W 14 10.00 Fair CLR 74.7 54 49% 29.76 0.0
05 09:35 SW 13 10.00 Fair CLR 73 55.4 54% 29.76 0.0
05 09:15 SW 14 G 18 10.00 Fair CLR 72 56.5 58% 29.76 0.0
05 08:55 SW 13 10.00 Fair CLR 70.2 57.7 65% 29.76 0.0
05 08:35 SW 7 10.00 Fair CLR 67.6 58.5 73% 29.75 0.0
Date Time (cdt) Wind (mph) Vis. (mi.) Weather Sky Cond. Air Dwpt Max. Min. Relative Humidity Wind Chill (°F) Heat Index (°F) altimeter (in) sea level (mb) 1 hr 3 hr 6 hr
6 hour
Temperature (ºF) Pressure Precipitation (in)